sensor_id;sensor_type;location;lat;lon;timestamp;P1;durP1;ratioP1;P2;durP2;ratioP2
24163;SDS011;12319;49.204;8.116;2022-08-19T00:01:49;5.68;;;5.18;;
24163;SDS011;12319;49.204;8.116;2022-08-19T00:04:16;6.22;;;5.72;;
24163;SDS011;12319;49.204;8.116;2022-08-19T00:06:44;5.53;;;5.13;;
24163;SDS011;12319;49.204;8.116;2022-08-19T00:09:13;6.22;;;5.72;;
24163;SDS011;12319;49.204;8.116;2022-08-19T00:11:40;5.75;;;5.32;;
24163;SDS011;12319;49.204;8.116;2022-08-19T00:14:07;5.88;;;5.40;;
24163;SDS011;12319;49.204;8.116;2022-08-19T00:16:35;5.57;;;5.18;;
24163;SDS011;12319;49.204;8.116;2022-08-19T00:19:02;5.82;;;5.43;;
24163;SDS011;12319;49.204;8.116;2022-08-19T00:21:28;6.10;;;5.60;;
24163;SDS011;12319;49.204;8.116;2022-08-19T00:23:54;5.75;;;5.25;;
24163;SDS011;12319;49.204;8.116;2022-08-19T00:26:23;5.65;;;5.25;;
24163;SDS011;12319;49.204;8.116;2022-08-19T00:28:49;6.75;;;6.15;;
24163;SDS011;12319;49.204;8.116;2022-08-19T00:31:15;5.88;;;5.40;;
24163;SDS011;12319;49.204;8.116;2022-08-19T00:33:41;6.00;;;5.50;;
24163;SDS011;12319;49.204;8.116;2022-08-19T00:36:08;6.25;;;5.75;;
24163;SDS011;12319;49.204;8.116;2022-08-19T00:38:35;5.85;;;5.43;;
24163;SDS011;12319;49.204;8.116;2022-08-19T00:41:01;6.18;;;5.68;;
24163;SDS011;12319;49.204;8.116;2022-08-19T00:43:27;5.93;;;5.53;;
24163;SDS011;12319;49.204;8.116;2022-08-19T00:45:53;5.93;;;5.43;;
24163;SDS011;12319;49.204;8.116;2022-08-19T00:48:19;6.47;;;5.82;;
24163;SDS011;12319;49.204;8.116;2022-08-19T00:50:47;6.63;;;5.88;;
24163;SDS011;12319;49.204;8.116;2022-08-19T00:53:14;6.22;;;5.72;;
24163;SDS011;12319;49.204;8.116;2022-08-19T00:55:47;6.43;;;5.82;;
24163;SDS011;12319;49.204;8.116;2022-08-19T00:58:15;6.03;;;5.63;;
24163;SDS011;12319;49.204;8.116;2022-08-19T01:00:44;5.65;;;5.25;;
24163;SDS011;12319;49.204;8.116;2022-08-19T01:03:12;6.30;;;5.80;;
24163;SDS011;12319;49.204;8.116;2022-08-19T01:05:41;6.25;;;5.65;;
24163;SDS011;12319;49.204;8.116;2022-08-19T01:08:08;6.85;;;6.25;;
24163;SDS011;12319;49.204;8.116;2022-08-19T01:10:39;6.03;;;5.53;;
24163;SDS011;12319;49.204;8.116;2022-08-19T01:13:08;6.82;;;5.35;;
24163;SDS011;12319;49.204;8.116;2022-08-19T01:15:45;5.88;;;5.38;;
24163;SDS011;12319;49.204;8.116;2022-08-19T01:18:15;5.97;;;5.47;;
24163;SDS011;12319;49.204;8.116;2022-08-19T01:20:42;5.88;;;5.38;;
24163;SDS011;12319;49.204;8.116;2022-08-19T01:23:08;5.13;;;4.72;;
24163;SDS011;12319;49.204;8.116;2022-08-19T01:25:45;5.43;;;5.03;;
24163;SDS011;12319;49.204;8.116;2022-08-19T01:28:22;6.75;;;6.15;;
24163;SDS011;12319;49.204;8.116;2022-08-19T01:30:50;6.22;;;5.72;;
24163;SDS011;12319;49.204;8.116;2022-08-19T01:33:17;6.20;;;5.70;;
24163;SDS011;12319;49.204;8.116;2022-08-19T01:35:44;5.93;;;5.45;;
24163;SDS011;12319;49.204;8.116;2022-08-19T01:38:19;5.80;;;5.30;;
24163;SDS011;12319;49.204;8.116;2022-08-19T01:40:46;6.35;;;5.82;;
24163;SDS011;12319;49.204;8.116;2022-08-19T01:43:12;5.80;;;5.30;;
24163;SDS011;12319;49.204;8.116;2022-08-19T01:45:38;6.15;;;5.63;;
24163;SDS011;12319;49.204;8.116;2022-08-19T01:48:05;5.82;;;5.35;;
24163;SDS011;12319;49.204;8.116;2022-08-19T01:50:34;6.03;;;5.60;;
24163;SDS011;12319;49.204;8.116;2022-08-19T01:53:01;5.60;;;5.18;;
24163;SDS011;12319;49.204;8.116;2022-08-19T01:55:28;5.90;;;5.43;;
24163;SDS011;12319;49.204;8.116;2022-08-19T01:57:56;5.85;;;5.45;;
24163;SDS011;12319;49.204;8.116;2022-08-19T02:00:25;5.57;;;5.18;;
24163;SDS011;12319;49.204;8.116;2022-08-19T02:02:52;6.35;;;5.75;;
24163;SDS011;12319;49.204;8.116;2022-08-19T02:05:19;6.00;;;5.50;;
24163;SDS011;12319;49.204;8.116;2022-08-19T02:07:46;6.55;;;6.00;;
24163;SDS011;12319;49.204;8.116;2022-08-19T02:10:14;5.50;;;5.10;;
24163;SDS011;12319;49.204;8.116;2022-08-19T02:12:42;6.43;;;5.93;;
24163;SDS011;12319;49.204;8.116;2022-08-19T02:15:08;5.75;;;5.25;;
24163;SDS011;12319;49.204;8.116;2022-08-19T02:17:34;5.90;;;5.40;;
24163;SDS011;12319;49.204;8.116;2022-08-19T02:20:00;5.65;;;5.22;;
24163;SDS011;12319;49.204;8.116;2022-08-19T02:22:26;6.15;;;5.65;;
24163;SDS011;12319;49.204;8.116;2022-08-19T02:24:52;6.05;;;5.65;;
24163;SDS011;12319;49.204;8.116;2022-08-19T02:27:19;6.93;;;6.28;;
24163;SDS011;12319;49.204;8.116;2022-08-19T02:29:46;6.50;;;6.00;;
24163;SDS011;12319;49.204;8.116;2022-08-19T02:32:12;6.15;;;5.65;;
24163;SDS011;12319;49.204;8.116;2022-08-19T02:34:38;5.80;;;5.40;;
24163;SDS011;12319;49.204;8.116;2022-08-19T02:37:04;6.25;;;5.65;;
24163;SDS011;12319;49.204;8.116;2022-08-19T02:39:30;6.32;;;5.82;;
24163;SDS011;12319;49.204;8.116;2022-08-19T02:41:55;6.10;;;5.60;;
24163;SDS011;12319;49.204;8.116;2022-08-19T02:44:22;6.18;;;5.68;;
24163;SDS011;12319;49.204;8.116;2022-08-19T02:46:48;6.00;;;5.50;;
24163;SDS011;12319;49.204;8.116;2022-08-19T02:49:16;5.53;;;5.13;;
24163;SDS011;12319;49.204;8.116;2022-08-19T02:51:44;6.57;;;5.97;;
24163;SDS011;12319;49.204;8.116;2022-08-19T02:54:11;5.82;;;5.43;;
24163;SDS011;12319;49.204;8.116;2022-08-19T02:56:38;5.72;;;5.32;;
24163;SDS011;12319;49.204;8.116;2022-08-19T02:59:04;6.30;;;5.82;;
24163;SDS011;12319;49.204;8.116;2022-08-19T03:01:33;6.20;;;5.70;;
24163;SDS011;12319;49.204;8.116;2022-08-19T03:04:00;6.35;;;5.70;;
24163;SDS011;12319;49.204;8.116;2022-08-19T03:06:27;6.13;;;5.63;;
24163;SDS011;12319;49.204;8.116;2022-08-19T03:08:54;6.20;;;5.70;;
24163;SDS011;12319;49.204;8.116;2022-08-19T03:11:21;5.80;;;5.38;;
24163;SDS011;12319;49.204;8.116;2022-08-19T03:13:49;5.97;;;5.57;;
24163;SDS011;12319;49.204;8.116;2022-08-19T03:16:15;6.28;;;5.82;;
24163;SDS011;12319;49.204;8.116;2022-08-19T03:18:45;6.20;;;5.70;;
24163;SDS011;12319;49.204;8.116;2022-08-19T03:21:14;6.63;;;6.13;;
24163;SDS011;12319;49.204;8.116;2022-08-19T03:23:53;5.88;;;5.47;;
24163;SDS011;12319;49.204;8.116;2022-08-19T03:26:19;5.93;;;5.53;;
24163;SDS011;12319;49.204;8.116;2022-08-19T03:28:45;6.20;;;5.70;;
24163;SDS011;12319;49.204;8.116;2022-08-19T03:31:15;6.07;;;5.68;;
24163;SDS011;12319;49.204;8.116;2022-08-19T03:33:43;6.00;;;5.60;;
24163;SDS011;12319;49.204;8.116;2022-08-19T03:36:11;6.32;;;5.82;;
24163;SDS011;12319;49.204;8.116;2022-08-19T03:38:41;6.63;;;6.03;;
24163;SDS011;12319;49.204;8.116;2022-08-19T03:41:12;6.40;;;5.90;;
24163;SDS011;12319;49.204;8.116;2022-08-19T03:43:40;5.72;;;5.32;;
24163;SDS011;12319;49.204;8.116;2022-08-19T03:46:08;6.32;;;5.72;;
24163;SDS011;12319;49.204;8.116;2022-08-19T03:48:36;5.28;;;4.88;;
24163;SDS011;12319;49.204;8.116;2022-08-19T03:51:03;5.82;;;5.40;;
24163;SDS011;12319;49.204;8.116;2022-08-19T03:53:30;5.22;;;4.82;;
24163;SDS011;12319;49.204;8.116;2022-08-19T03:55:56;5.18;;;4.78;;
24163;SDS011;12319;49.204;8.116;2022-08-19T03:58:25;5.40;;;5.00;;
24163;SDS011;12319;49.204;8.116;2022-08-19T04:00:53;4.97;;;4.57;;
24163;SDS011;12319;49.204;8.116;2022-08-19T04:03:20;6.07;;;5.07;;
24163;SDS011;12319;49.204;8.116;2022-08-19T04:05:46;5.28;;;4.88;;
24163;SDS011;12319;49.204;8.116;2022-08-19T04:08:11;5.68;;;4.93;;
24163;SDS011;12319;49.204;8.116;2022-08-19T04:10:38;4.72;;;4.32;;
24163;SDS011;12319;49.204;8.116;2022-08-19T04:13:05;5.28;;;4.88;;
24163;SDS011;12319;49.204;8.116;2022-08-19T04:15:32;6.28;;;5.78;;
24163;SDS011;12319;49.204;8.116;2022-08-19T04:18:03;4.93;;;4.53;;
24163;SDS011;12319;49.204;8.116;2022-08-19T04:20:33;4.88;;;4.50;;
24163;SDS011;12319;49.204;8.116;2022-08-19T04:23:04;4.97;;;4.57;;
24163;SDS011;12319;49.204;8.116;2022-08-19T04:25:34;4.93;;;4.63;;
24163;SDS011;12319;49.204;8.116;2022-08-19T04:28:08;4.57;;;4.22;;
24163;SDS011;12319;49.204;8.116;2022-08-19T04:30:40;4.45;;;4.15;;
24163;SDS011;12319;49.204;8.116;2022-08-19T04:33:10;4.80;;;4.40;;
24163;SDS011;12319;49.204;8.116;2022-08-19T04:35:40;5.22;;;4.70;;
24163;SDS011;12319;49.204;8.116;2022-08-19T04:38:10;4.50;;;4.10;;
24163;SDS011;12319;49.204;8.116;2022-08-19T04:40:40;4.57;;;4.22;;
24163;SDS011;12319;49.204;8.116;2022-08-19T04:43:29;4.47;;;4.07;;
24163;SDS011;12319;49.204;8.116;2022-08-19T04:45:56;4.85;;;4.55;;
24163;SDS011;12319;49.204;8.116;2022-08-19T04:48:22;4.40;;;4.03;;
24163;SDS011;12319;49.204;8.116;2022-08-19T04:50:55;4.38;;;4.07;;
24163;SDS011;12319;49.204;8.116;2022-08-19T04:55:55;4.50;;;4.10;;
24163;SDS011;12319;49.204;8.116;2022-08-19T04:58:22;4.13;;;3.80;;
24163;SDS011;12319;49.204;8.116;2022-08-19T05:00:50;4.53;;;4.13;;
24163;SDS011;12319;49.204;8.116;2022-08-19T05:03:16;4.57;;;4.28;;
24163;SDS011;12319;49.204;8.116;2022-08-19T05:05:42;4.20;;;3.90;;
24163;SDS011;12319;49.204;8.116;2022-08-19T05:08:09;4.05;;;3.75;;
24163;SDS011;12319;49.204;8.116;2022-08-19T05:10:36;4.30;;;4.00;;
24163;SDS011;12319;49.204;8.116;2022-08-19T05:13:03;4.38;;;3.95;;
24163;SDS011;12319;49.204;8.116;2022-08-19T05:15:29;4.90;;;4.53;;
24163;SDS011;12319;49.204;8.116;2022-08-19T05:17:55;4.47;;;4.18;;
24163;SDS011;12319;49.204;8.116;2022-08-19T05:20:39;3.90;;;3.60;;
24163;SDS011;12319;49.204;8.116;2022-08-19T05:23:23;5.00;;;4.45;;
24163;SDS011;12319;49.204;8.116;2022-08-19T05:25:49;4.35;;;4.05;;
24163;SDS011;12319;49.204;8.116;2022-08-19T05:28:15;4.25;;;3.95;;
24163;SDS011;12319;49.204;8.116;2022-08-19T05:30:41;4.50;;;4.10;;
24163;SDS011;12319;49.204;8.116;2022-08-19T05:33:09;4.40;;;4.10;;
24163;SDS011;12319;49.204;8.116;2022-08-19T05:35:37;4.30;;;4.00;;
24163;SDS011;12319;49.204;8.116;2022-08-19T05:38:04;4.65;;;4.35;;
24163;SDS011;12319;49.204;8.116;2022-08-19T05:40:30;4.57;;;4.18;;
24163;SDS011;12319;49.204;8.116;2022-08-19T05:42:55;3.70;;;3.50;;
24163;SDS011;12319;49.204;8.116;2022-08-19T05:45:21;3.85;;;3.63;;
24163;SDS011;12319;49.204;8.116;2022-08-19T05:47:46;4.03;;;3.72;;
24163;SDS011;12319;49.204;8.116;2022-08-19T05:50:12;3.80;;;3.50;;
24163;SDS011;12319;49.204;8.116;2022-08-19T05:52:38;3.92;;;3.63;;
24163;SDS011;12319;49.204;8.116;2022-08-19T05:55:04;3.78;;;3.13;;
24163;SDS011;12319;49.204;8.116;2022-08-19T05:57:31;4.57;;;3.38;;
24163;SDS011;12319;49.204;8.116;2022-08-19T05:59:56;3.75;;;3.45;;
24163;SDS011;12319;49.204;8.116;2022-08-19T06:02:25;3.42;;;3.22;;
24163;SDS011;12319;49.204;8.116;2022-08-19T06:04:51;4.43;;;3.17;;
24163;SDS011;12319;49.204;8.116;2022-08-19T06:07:17;4.03;;;3.22;;
24163;SDS011;12319;49.204;8.116;2022-08-19T06:09:44;3.53;;;3.22;;
24163;SDS011;12319;49.204;8.116;2022-08-19T06:12:09;4.60;;;3.30;;
24163;SDS011;12319;49.204;8.116;2022-08-19T06:14:35;3.88;;;3.58;;
24163;SDS011;12319;49.204;8.116;2022-08-19T06:17:02;3.40;;;3.20;;
24163;SDS011;12319;49.204;8.116;2022-08-19T06:19:28;3.58;;;3.30;;
24163;SDS011;12319;49.204;8.116;2022-08-19T06:21:55;3.75;;;3.38;;
24163;SDS011;12319;49.204;8.116;2022-08-19T06:24:24;3.45;;;3.15;;
24163;SDS011;12319;49.204;8.116;2022-08-19T06:26:52;3.35;;;3.15;;
24163;SDS011;12319;49.204;8.116;2022-08-19T06:29:20;3.47;;;3.17;;
24163;SDS011;12319;49.204;8.116;2022-08-19T06:31:50;3.33;;;2.70;;
24163;SDS011;12319;49.204;8.116;2022-08-19T06:34:17;3.38;;;3.13;;
24163;SDS011;12319;49.204;8.116;2022-08-19T06:36:45;4.65;;;3.05;;
24163;SDS011;12319;49.204;8.116;2022-08-19T06:39:16;3.22;;;2.97;;
24163;SDS011;12319;49.204;8.116;2022-08-19T06:41:56;3.05;;;2.85;;
24163;SDS011;12319;49.204;8.116;2022-08-19T06:44:24;3.38;;;3.08;;
24163;SDS011;12319;49.204;8.116;2022-08-19T06:46:53;3.00;;;2.75;;
24163;SDS011;12319;49.204;8.116;2022-08-19T06:49:19;3.42;;;3.08;;
24163;SDS011;12319;49.204;8.116;2022-08-19T06:51:45;3.25;;;3.05;;
24163;SDS011;12319;49.204;8.116;2022-08-19T06:54:13;3.40;;;3.10;;
24163;SDS011;12319;49.204;8.116;2022-08-19T06:56:39;3.63;;;3.33;;
24163;SDS011;12319;49.204;8.116;2022-08-19T06:59:06;3.80;;;3.53;;
24163;SDS011;12319;49.204;8.116;2022-08-19T07:01:34;4.07;;;3.13;;
24163;SDS011;12319;49.204;8.116;2022-08-19T07:04:07;3.30;;;3.00;;
24163;SDS011;12319;49.204;8.116;2022-08-19T07:06:35;3.30;;;3.00;;
24163;SDS011;12319;49.204;8.116;2022-08-19T07:09:02;3.50;;;3.20;;
24163;SDS011;12319;49.204;8.116;2022-08-19T07:11:29;4.07;;;3.17;;
24163;SDS011;12319;49.204;8.116;2022-08-19T07:13:55;4.10;;;3.80;;
24163;SDS011;12319;49.204;8.116;2022-08-19T07:16:21;3.60;;;3.30;;
24163;SDS011;12319;49.204;8.116;2022-08-19T07:18:50;3.45;;;3.15;;
24163;SDS011;12319;49.204;8.116;2022-08-19T07:21:26;3.30;;;3.00;;
24163;SDS011;12319;49.204;8.116;2022-08-19T07:23:53;3.53;;;3.22;;
24163;SDS011;12319;49.204;8.116;2022-08-19T07:26:28;4.63;;;3.10;;
24163;SDS011;12319;49.204;8.116;2022-08-19T07:28:56;3.20;;;3.00;;
24163;SDS011;12319;49.204;8.116;2022-08-19T07:31:23;3.00;;;2.72;;
24163;SDS011;12319;49.204;8.116;2022-08-19T07:33:51;3.40;;;3.10;;
24163;SDS011;12319;49.204;8.116;2022-08-19T07:36:20;4.07;;;3.20;;
24163;SDS011;12319;49.204;8.116;2022-08-19T07:38:49;3.45;;;3.00;;
24163;SDS011;12319;49.204;8.116;2022-08-19T07:41:17;3.13;;;2.83;;
24163;SDS011;12319;49.204;8.116;2022-08-19T07:43:45;3.45;;;3.15;;
24163;SDS011;12319;49.204;8.116;2022-08-19T07:46:10;4.38;;;3.03;;
24163;SDS011;12319;49.204;8.116;2022-08-19T07:48:38;2.90;;;2.70;;
24163;SDS011;12319;49.204;8.116;2022-08-19T07:51:05;2.80;;;2.60;;
24163;SDS011;12319;49.204;8.116;2022-08-19T07:53:33;3.80;;;3.20;;
24163;SDS011;12319;49.204;8.116;2022-08-19T07:56:01;2.80;;;2.60;;
24163;SDS011;12319;49.204;8.116;2022-08-19T07:58:29;3.47;;;3.25;;
24163;SDS011;12319;49.204;8.116;2022-08-19T08:00:57;3.17;;;2.88;;
24163;SDS011;12319;49.204;8.116;2022-08-19T08:03:23;3.53;;;3.22;;
24163;SDS011;12319;49.204;8.116;2022-08-19T08:06:09;3.33;;;3.13;;
24163;SDS011;12319;49.204;8.116;2022-08-19T08:08:54;3.38;;;2.95;;
24163;SDS011;12319;49.204;8.116;2022-08-19T08:11:39;3.25;;;2.97;;
24163;SDS011;12319;49.204;8.116;2022-08-19T08:14:07;3.22;;;3.03;;
24163;SDS011;12319;49.204;8.116;2022-08-19T08:16:35;3.50;;;3.15;;
24163;SDS011;12319;49.204;8.116;2022-08-19T08:19:03;2.78;;;2.58;;
24163;SDS011;12319;49.204;8.116;2022-08-19T08:21:30;3.15;;;2.95;;
24163;SDS011;12319;49.204;8.116;2022-08-19T08:23:56;3.50;;;3.20;;
24163;SDS011;12319;49.204;8.116;2022-08-19T08:26:22;3.15;;;2.83;;
24163;SDS011;12319;49.204;8.116;2022-08-19T08:28:48;2.95;;;2.65;;
24163;SDS011;12319;49.204;8.116;2022-08-19T08:31:14;2.88;;;2.67;;
24163;SDS011;12319;49.204;8.116;2022-08-19T08:33:39;2.83;;;2.63;;
24163;SDS011;12319;49.204;8.116;2022-08-19T08:36:07;2.90;;;2.67;;
24163;SDS011;12319;49.204;8.116;2022-08-19T08:38:34;2.85;;;2.50;;
24163;SDS011;12319;49.204;8.116;2022-08-19T08:41:02;3.20;;;3.00;;
24163;SDS011;12319;49.204;8.116;2022-08-19T08:43:38;3.33;;;3.03;;
24163;SDS011;12319;49.204;8.116;2022-08-19T08:46:09;3.08;;;2.88;;
24163;SDS011;12319;49.204;8.116;2022-08-19T08:48:50;3.30;;;3.05;;
24163;SDS011;12319;49.204;8.116;2022-08-19T08:51:27;3.13;;;2.92;;
24163;SDS011;12319;49.204;8.116;2022-08-19T08:53:58;2.83;;;2.63;;
24163;SDS011;12319;49.204;8.116;2022-08-19T08:56:24;3.05;;;2.85;;
24163;SDS011;12319;49.204;8.116;2022-08-19T09:01:46;2.92;;;2.72;;
24163;SDS011;12319;49.204;8.116;2022-08-19T09:04:13;2.88;;;2.67;;
24163;SDS011;12319;49.204;8.116;2022-08-19T09:09:39;2.70;;;2.22;;
24163;SDS011;12319;49.204;8.116;2022-08-19T09:12:10;2.60;;;2.38;;
24163;SDS011;12319;49.204;8.116;2022-08-19T09:15:04;2.67;;;2.40;;
24163;SDS011;12319;49.204;8.116;2022-08-19T09:17:33;2.65;;;2.45;;
24163;SDS011;12319;49.204;8.116;2022-08-19T09:20:05;2.80;;;2.60;;
24163;SDS011;12319;49.204;8.116;2022-08-19T09:22:33;3.70;;;3.08;;
24163;SDS011;12319;49.204;8.116;2022-08-19T09:25:00;2.40;;;2.20;;
24163;SDS011;12319;49.204;8.116;2022-08-19T09:27:26;2.60;;;2.40;;
24163;SDS011;12319;49.204;8.116;2022-08-19T09:29:53;2.22;;;2.13;;
24163;SDS011;12319;49.204;8.116;2022-08-19T09:32:19;2.22;;;2.03;;
24163;SDS011;12319;49.204;8.116;2022-08-19T09:34:45;2.30;;;2.20;;
24163;SDS011;12319;49.204;8.116;2022-08-19T09:37:11;2.33;;;2.13;;
24163;SDS011;12319;49.204;8.116;2022-08-19T09:39:37;2.30;;;2.10;;
24163;SDS011;12319;49.204;8.116;2022-08-19T09:42:04;1.98;;;1.67;;
24163;SDS011;12319;49.204;8.116;2022-08-19T09:44:33;2.15;;;1.73;;
24163;SDS011;12319;49.204;8.116;2022-08-19T09:46:59;2.00;;;1.90;;
24163;SDS011;12319;49.204;8.116;2022-08-19T09:49:25;2.25;;;2.05;;
24163;SDS011;12319;49.204;8.116;2022-08-19T09:51:50;2.25;;;2.05;;
24163;SDS011;12319;49.204;8.116;2022-08-19T09:54:19;1.80;;;1.70;;
24163;SDS011;12319;49.204;8.116;2022-08-19T09:56:44;2.30;;;2.15;;
24163;SDS011;12319;49.204;8.116;2022-08-19T09:59:10;2.60;;;2.15;;
24163;SDS011;12319;49.204;8.116;2022-08-19T10:01:37;1.90;;;1.80;;
24163;SDS011;12319;49.204;8.116;2022-08-19T10:04:03;2.78;;;2.20;;
24163;SDS011;12319;49.204;8.116;2022-08-19T10:06:36;2.10;;;2.00;;
24163;SDS011;12319;49.204;8.116;2022-08-19T10:09:04;2.38;;;2.28;;
24163;SDS011;12319;49.204;8.116;2022-08-19T10:11:32;2.17;;;1.98;;
24163;SDS011;12319;49.204;8.116;2022-08-19T10:13:59;2.13;;;1.90;;
24163;SDS011;12319;49.204;8.116;2022-08-19T10:16:26;3.55;;;2.00;;
24163;SDS011;12319;49.204;8.116;2022-08-19T10:18:52;2.70;;;2.13;;
24163;SDS011;12319;49.204;8.116;2022-08-19T10:23:49;2.20;;;2.10;;
24163;SDS011;12319;49.204;8.116;2022-08-19T10:26:18;2.35;;;2.15;;
24163;SDS011;12319;49.204;8.116;2022-08-19T10:28:45;2.22;;;2.08;;
24163;SDS011;12319;49.204;8.116;2022-08-19T10:31:16;1.83;;;1.73;;
24163;SDS011;12319;49.204;8.116;2022-08-19T10:33:44;2.08;;;1.98;;
24163;SDS011;12319;49.204;8.116;2022-08-19T10:36:13;2.60;;;2.40;;
24163;SDS011;12319;49.204;8.116;2022-08-19T10:38:42;1.90;;;1.80;;
24163;SDS011;12319;49.204;8.116;2022-08-19T10:41:11;2.35;;;2.00;;
24163;SDS011;12319;49.204;8.116;2022-08-19T10:43:39;2.00;;;1.90;;
24163;SDS011;12319;49.204;8.116;2022-08-19T10:46:06;1.73;;;1.60;;
24163;SDS011;12319;49.204;8.116;2022-08-19T10:48:35;1.63;;;1.52;;
24163;SDS011;12319;49.204;8.116;2022-08-19T10:51:02;1.95;;;1.63;;
24163;SDS011;12319;49.204;8.116;2022-08-19T10:53:47;1.80;;;1.70;;
24163;SDS011;12319;49.204;8.116;2022-08-19T10:56:12;1.73;;;1.63;;
24163;SDS011;12319;49.204;8.116;2022-08-19T10:58:57;2.03;;;1.92;;
24163;SDS011;12319;49.204;8.116;2022-08-19T11:01:23;2.20;;;2.00;;
24163;SDS011;12319;49.204;8.116;2022-08-19T11:03:49;1.85;;;1.75;;
24163;SDS011;12319;49.204;8.116;2022-08-19T11:06:15;1.90;;;1.80;;
24163;SDS011;12319;49.204;8.116;2022-08-19T11:08:41;1.77;;;1.67;;
24163;SDS011;12319;49.204;8.116;2022-08-19T11:11:09;1.90;;;1.80;;
24163;SDS011;12319;49.204;8.116;2022-08-19T11:13:36;2.53;;;2.00;;
24163;SDS011;12319;49.204;8.116;2022-08-19T11:16:11;2.35;;;2.17;;
24163;SDS011;12319;49.204;8.116;2022-08-19T11:18:40;2.50;;;1.95;;
24163;SDS011;12319;49.204;8.116;2022-08-19T11:21:10;2.58;;;2.20;;
24163;SDS011;12319;49.204;8.116;2022-08-19T11:23:45;2.00;;;1.90;;
24163;SDS011;12319;49.204;8.116;2022-08-19T11:26:13;2.47;;;2.28;;
24163;SDS011;12319;49.204;8.116;2022-08-19T11:28:40;2.60;;;2.40;;
24163;SDS011;12319;49.204;8.116;2022-08-19T11:31:10;2.40;;;2.17;;
24163;SDS011;12319;49.204;8.116;2022-08-19T11:33:41;1.90;;;1.80;;
24163;SDS011;12319;49.204;8.116;2022-08-19T11:36:07;2.22;;;1.92;;
24163;SDS011;12319;49.204;8.116;2022-08-19T11:38:34;1.88;;;1.77;;
24163;SDS011;12319;49.204;8.116;2022-08-19T11:41:01;1.90;;;1.80;;
24163;SDS011;12319;49.204;8.116;2022-08-19T11:43:29;1.70;;;1.60;;
24163;SDS011;12319;49.204;8.116;2022-08-19T11:45:56;3.63;;;2.00;;
24163;SDS011;12319;49.204;8.116;2022-08-19T11:48:22;3.10;;;1.70;;
24163;SDS011;12319;49.204;8.116;2022-08-19T11:50:49;1.67;;;1.38;;
24163;SDS011;12319;49.204;8.116;2022-08-19T11:53:18;1.67;;;1.58;;
24163;SDS011;12319;49.204;8.116;2022-08-19T11:55:45;1.80;;;1.70;;
24163;SDS011;12319;49.204;8.116;2022-08-19T11:58:13;1.63;;;1.52;;
24163;SDS011;12319;49.204;8.116;2022-08-19T12:00:40;1.80;;;1.70;;
24163;SDS011;12319;49.204;8.116;2022-08-19T12:03:06;1.27;;;1.23;;
24163;SDS011;12319;49.204;8.116;2022-08-19T12:05:33;2.22;;;1.40;;
24163;SDS011;12319;49.204;8.116;2022-08-19T12:08:01;1.50;;;1.40;;
24163;SDS011;12319;49.204;8.116;2022-08-19T12:10:27;1.40;;;1.30;;
24163;SDS011;12319;49.204;8.116;2022-08-19T12:12:52;1.30;;;1.20;;
24163;SDS011;12319;49.204;8.116;2022-08-19T12:15:18;1.10;;;1.00;;
24163;SDS011;12319;49.204;8.116;2022-08-19T12:17:43;1.85;;;1.27;;
24163;SDS011;12319;49.204;8.116;2022-08-19T12:20:09;1.48;;;1.10;;
24163;SDS011;12319;49.204;8.116;2022-08-19T12:22:36;1.30;;;1.20;;
24163;SDS011;12319;49.204;8.116;2022-08-19T12:25:03;1.60;;;1.13;;
24163;SDS011;12319;49.204;8.116;2022-08-19T12:27:30;1.10;;;1.00;;
24163;SDS011;12319;49.204;8.116;2022-08-19T12:29:56;1.35;;;1.25;;
24163;SDS011;12319;49.204;8.116;2022-08-19T12:32:22;1.20;;;1.10;;
24163;SDS011;12319;49.204;8.116;2022-08-19T12:34:49;1.40;;;1.30;;
24163;SDS011;12319;49.204;8.116;2022-08-19T12:37:15;1.27;;;1.17;;
24163;SDS011;12319;49.204;8.116;2022-08-19T12:39:42;1.25;;;1.15;;
24163;SDS011;12319;49.204;8.116;2022-08-19T12:42:08;1.40;;;1.30;;
24163;SDS011;12319;49.204;8.116;2022-08-19T12:44:36;1.27;;;1.17;;
24163;SDS011;12319;49.204;8.116;2022-08-19T12:47:04;1.33;;;1.27;;
24163;SDS011;12319;49.204;8.116;2022-08-19T12:49:30;1.45;;;1.35;;
24163;SDS011;12319;49.204;8.116;2022-08-19T12:51:58;0.90;;;0.90;;
24163;SDS011;12319;49.204;8.116;2022-08-19T12:54:28;1.30;;;1.20;;
24163;SDS011;12319;49.204;8.116;2022-08-19T12:56:55;1.50;;;1.30;;
24163;SDS011;12319;49.204;8.116;2022-08-19T12:59:21;1.30;;;1.20;;
24163;SDS011;12319;49.204;8.116;2022-08-19T13:01:47;1.20;;;1.10;;
24163;SDS011;12319;49.204;8.116;2022-08-19T13:04:13;1.10;;;1.10;;
24163;SDS011;12319;49.204;8.116;2022-08-19T13:06:38;1.65;;;1.30;;
24163;SDS011;12319;49.204;8.116;2022-08-19T13:09:04;1.40;;;1.30;;
24163;SDS011;12319;49.204;8.116;2022-08-19T13:11:30;1.40;;;1.30;;
24163;SDS011;12319;49.204;8.116;2022-08-19T13:13:59;0.93;;;0.93;;
24163;SDS011;12319;49.204;8.116;2022-08-19T13:16:26;1.27;;;1.17;;
24163;SDS011;12319;49.204;8.116;2022-08-19T13:18:53;1.33;;;1.23;;
24163;SDS011;12319;49.204;8.116;2022-08-19T13:21:20;1.48;;;1.38;;
24163;SDS011;12319;49.204;8.116;2022-08-19T13:23:48;2.40;;;1.48;;
24163;SDS011;12319;49.204;8.116;2022-08-19T13:26:14;2.15;;;1.40;;
24163;SDS011;12319;49.204;8.116;2022-08-19T13:28:41;1.38;;;1.17;;
24163;SDS011;12319;49.204;8.116;2022-08-19T13:31:26;1.50;;;1.40;;
24163;SDS011;12319;49.204;8.116;2022-08-19T13:34:13;1.20;;;1.20;;
24163;SDS011;12319;49.204;8.116;2022-08-19T13:36:39;1.15;;;1.13;;
24163;SDS011;12319;49.204;8.116;2022-08-19T13:39:06;1.30;;;1.25;;
24163;SDS011;12319;49.204;8.116;2022-08-19T13:41:33;2.58;;;1.20;;
24163;SDS011;12319;49.204;8.116;2022-08-19T13:44:00;1.52;;;1.42;;
24163;SDS011;12319;49.204;8.116;2022-08-19T13:46:26;1.42;;;1.33;;
24163;SDS011;12319;49.204;8.116;2022-08-19T13:48:55;2.15;;;1.52;;
24163;SDS011;12319;49.204;8.116;2022-08-19T13:51:21;1.58;;;1.48;;
24163;SDS011;12319;49.204;8.116;2022-08-19T13:53:46;1.17;;;1.08;;
24163;SDS011;12319;49.204;8.116;2022-08-19T13:56:14;1.42;;;1.33;;
24163;SDS011;12319;49.204;8.116;2022-08-19T13:58:44;1.40;;;1.30;;
24163;SDS011;12319;49.204;8.116;2022-08-19T14:01:10;1.35;;;1.27;;
24163;SDS011;12319;49.204;8.116;2022-08-19T14:03:36;1.38;;;1.27;;
24163;SDS011;12319;49.204;8.116;2022-08-19T14:06:02;1.48;;;1.38;;
24163;SDS011;12319;49.204;8.116;2022-08-19T14:08:28;1.63;;;1.45;;
24163;SDS011;12319;49.204;8.116;2022-08-19T14:10:57;1.60;;;1.50;;
24163;SDS011;12319;49.204;8.116;2022-08-19T14:13:23;1.63;;;1.52;;
24163;SDS011;12319;49.204;8.116;2022-08-19T14:15:48;1.20;;;1.10;;
24163;SDS011;12319;49.204;8.116;2022-08-19T14:18:15;2.45;;;1.63;;
24163;SDS011;12319;49.204;8.116;2022-08-19T14:20:42;1.95;;;1.77;;
24163;SDS011;12319;49.204;8.116;2022-08-19T14:23:08;2.00;;;1.67;;
24163;SDS011;12319;49.204;8.116;2022-08-19T14:25:34;1.58;;;1.48;;
24163;SDS011;12319;49.204;8.116;2022-08-19T14:28:00;1.40;;;1.27;;
24163;SDS011;12319;49.204;8.116;2022-08-19T14:30:28;1.48;;;1.38;;
24163;SDS011;12319;49.204;8.116;2022-08-19T14:32:55;1.52;;;1.42;;
24163;SDS011;12319;49.204;8.116;2022-08-19T14:35:23;2.03;;;1.60;;
24163;SDS011;12319;49.204;8.116;2022-08-19T14:37:50;1.52;;;1.38;;
24163;SDS011;12319;49.204;8.116;2022-08-19T14:40:21;1.85;;;1.63;;
24163;SDS011;12319;49.204;8.116;2022-08-19T14:42:53;0.85;;;0.85;;
24163;SDS011;12319;49.204;8.116;2022-08-19T14:45:24;1.70;;;1.60;;
24163;SDS011;12319;49.204;8.116;2022-08-19T14:47:51;1.60;;;1.50;;
24163;SDS011;12319;49.204;8.116;2022-08-19T14:50:17;1.40;;;1.30;;
24163;SDS011;12319;49.204;8.116;2022-08-19T14:52:43;1.88;;;1.77;;
24163;SDS011;12319;49.204;8.116;2022-08-19T14:55:09;1.50;;;1.40;;
24163;SDS011;12319;49.204;8.116;2022-08-19T14:57:34;1.40;;;1.30;;
24163;SDS011;12319;49.204;8.116;2022-08-19T15:00:00;3.55;;;1.60;;
24163;SDS011;12319;49.204;8.116;2022-08-19T15:02:25;1.70;;;1.60;;
24163;SDS011;12319;49.204;8.116;2022-08-19T15:04:51;1.75;;;1.65;;